sensor_id;sensor_type;location;lat;lon;timestamp;P1;durP1;ratioP1;P2;durP2;ratioP2
19664;SDS011;9980;51.020;7.772;2023-07-08T00:00:53;4.00;;;3.60;;
19664;SDS011;9980;51.020;7.772;2023-07-08T00:03:21;3.80;;;3.50;;
19664;SDS011;9980;51.020;7.772;2023-07-08T00:05:49;4.20;;;3.80;;
19664;SDS011;9980;51.020;7.772;2023-07-08T00:08:21;5.00;;;3.87;;
19664;SDS011;9980;51.020;7.772;2023-07-08T00:10:49;4.10;;;3.70;;
19664;SDS011;9980;51.020;7.772;2023-07-08T00:13:16;4.13;;;3.73;;
19664;SDS011;9980;51.020;7.772;2023-07-08T00:15:45;3.67;;;3.37;;
19664;SDS011;9980;51.020;7.772;2023-07-08T00:18:13;3.53;;;3.23;;
19664;SDS011;9980;51.020;7.772;2023-07-08T00:20:44;4.40;;;3.93;;
19664;SDS011;9980;51.020;7.772;2023-07-08T00:23:14;3.70;;;3.40;;
19664;SDS011;9980;51.020;7.772;2023-07-08T00:25:42;4.53;;;4.13;;
19664;SDS011;9980;51.020;7.772;2023-07-08T00:30:43;4.43;;;4.03;;
19664;SDS011;9980;51.020;7.772;2023-07-08T00:33:10;3.93;;;3.57;;
19664;SDS011;9980;51.020;7.772;2023-07-08T00:35:38;5.20;;;3.90;;
19664;SDS011;9980;51.020;7.772;2023-07-08T00:40:52;3.33;;;3.03;;
19664;SDS011;9980;51.020;7.772;2023-07-08T00:43:40;3.90;;;3.60;;
19664;SDS011;9980;51.020;7.772;2023-07-08T00:51:49;3.77;;;3.37;;
19664;SDS011;9980;51.020;7.772;2023-07-08T00:54:17;4.47;;;3.80;;
19664;SDS011;9980;51.020;7.772;2023-07-08T00:56:47;3.90;;;3.50;;
19664;SDS011;9980;51.020;7.772;2023-07-08T00:59:18;9.27;;;3.90;;
19664;SDS011;9980;51.020;7.772;2023-07-08T01:02:01;3.60;;;3.30;;
19664;SDS011;9980;51.020;7.772;2023-07-08T01:04:52;3.73;;;3.33;;
19664;SDS011;9980;51.020;7.772;2023-07-08T01:07:38;3.93;;;3.53;;
19664;SDS011;9980;51.020;7.772;2023-07-08T01:10:12;5.23;;;3.83;;
19664;SDS011;9980;51.020;7.772;2023-07-08T01:12:46;3.97;;;3.67;;
19664;SDS011;9980;51.020;7.772;2023-07-08T01:15:20;4.70;;;3.50;;
19664;SDS011;9980;51.020;7.772;2023-07-08T01:17:52;3.80;;;3.50;;
19664;SDS011;9980;51.020;7.772;2023-07-08T01:20:21;4.83;;;3.87;;
19664;SDS011;9980;51.020;7.772;2023-07-08T01:22:48;4.10;;;3.80;;
19664;SDS011;9980;51.020;7.772;2023-07-08T01:25:17;4.13;;;3.73;;
19664;SDS011;9980;51.020;7.772;2023-07-08T01:27:47;4.83;;;3.30;;
19664;SDS011;9980;51.020;7.772;2023-07-08T01:30:21;3.70;;;3.40;;
19664;SDS011;9980;51.020;7.772;2023-07-08T01:32:48;4.33;;;3.30;;
19664;SDS011;9980;51.020;7.772;2023-07-08T01:35:22;4.33;;;3.93;;
19664;SDS011;9980;51.020;7.772;2023-07-08T01:37:51;4.27;;;3.33;;
19664;SDS011;9980;51.020;7.772;2023-07-08T01:40:31;4.10;;;3.80;;
19664;SDS011;9980;51.020;7.772;2023-07-08T01:43:02;3.37;;;3.00;;
19664;SDS011;9980;51.020;7.772;2023-07-08T01:45:36;3.90;;;3.50;;
19664;SDS011;9980;51.020;7.772;2023-07-08T01:48:08;3.87;;;3.40;;
19664;SDS011;9980;51.020;7.772;2023-07-08T01:51:07;6.20;;;4.00;;
19664;SDS011;9980;51.020;7.772;2023-07-08T01:53:35;4.63;;;3.23;;
19664;SDS011;9980;51.020;7.772;2023-07-08T01:56:07;3.50;;;2.90;;
19664;SDS011;9980;51.020;7.772;2023-07-08T01:58:36;3.20;;;2.90;;
19664;SDS011;9980;51.020;7.772;2023-07-08T02:01:03;3.17;;;2.97;;
19664;SDS011;9980;51.020;7.772;2023-07-08T02:03:31;4.53;;;3.87;;
19664;SDS011;9980;51.020;7.772;2023-07-08T02:05:58;4.57;;;3.63;;
19664;SDS011;9980;51.020;7.772;2023-07-08T02:08:25;3.03;;;2.83;;
19664;SDS011;9980;51.020;7.772;2023-07-08T02:10:54;4.00;;;3.50;;
19664;SDS011;9980;51.020;7.772;2023-07-08T02:13:24;3.73;;;3.43;;
19664;SDS011;9980;51.020;7.772;2023-07-08T02:15:51;4.27;;;3.60;;
19664;SDS011;9980;51.020;7.772;2023-07-08T02:18:18;3.57;;;3.23;;
19664;SDS011;9980;51.020;7.772;2023-07-08T02:20:46;3.60;;;3.30;;
19664;SDS011;9980;51.020;7.772;2023-07-08T02:23:14;6.70;;;3.33;;
19664;SDS011;9980;51.020;7.772;2023-07-08T02:25:41;4.00;;;3.70;;
19664;SDS011;9980;51.020;7.772;2023-07-08T02:28:16;3.93;;;3.23;;
19664;SDS011;9980;51.020;7.772;2023-07-08T02:30:43;3.83;;;3.53;;
19664;SDS011;9980;51.020;7.772;2023-07-08T02:33:12;3.20;;;3.00;;
19664;SDS011;9980;51.020;7.772;2023-07-08T02:35:43;4.87;;;3.37;;
19664;SDS011;9980;51.020;7.772;2023-07-08T02:38:11;3.60;;;3.30;;
19664;SDS011;9980;51.020;7.772;2023-07-08T02:40:39;3.73;;;3.43;;
19664;SDS011;9980;51.020;7.772;2023-07-08T02:43:06;3.30;;;3.00;;
19664;SDS011;9980;51.020;7.772;2023-07-08T02:45:33;3.07;;;2.87;;
19664;SDS011;9980;51.020;7.772;2023-07-08T02:48:00;3.83;;;3.37;;
19664;SDS011;9980;51.020;7.772;2023-07-08T02:50:27;4.00;;;3.70;;
19664;SDS011;9980;51.020;7.772;2023-07-08T02:52:54;4.07;;;3.77;;
19664;SDS011;9980;51.020;7.772;2023-07-08T02:55:21;3.80;;;3.17;;
19664;SDS011;9980;51.020;7.772;2023-07-08T02:57:48;4.57;;;3.40;;
19664;SDS011;9980;51.020;7.772;2023-07-08T03:00:15;3.43;;;3.13;;
19664;SDS011;9980;51.020;7.772;2023-07-08T03:02:42;3.77;;;3.27;;
19664;SDS011;9980;51.020;7.772;2023-07-08T03:05:09;3.80;;;3.40;;
19664;SDS011;9980;51.020;7.772;2023-07-08T03:07:36;3.87;;;3.37;;
19664;SDS011;9980;51.020;7.772;2023-07-08T03:10:03;3.80;;;3.50;;
19664;SDS011;9980;51.020;7.772;2023-07-08T03:12:31;3.43;;;3.13;;
19664;SDS011;9980;51.020;7.772;2023-07-08T03:14:59;4.70;;;3.20;;
19664;SDS011;9980;51.020;7.772;2023-07-08T03:17:26;4.63;;;3.37;;
19664;SDS011;9980;51.020;7.772;2023-07-08T03:19:53;3.53;;;3.23;;
19664;SDS011;9980;51.020;7.772;2023-07-08T03:22:20;4.53;;;3.03;;
19664;SDS011;9980;51.020;7.772;2023-07-08T03:24:47;3.63;;;3.07;;
19664;SDS011;9980;51.020;7.772;2023-07-08T03:27:18;3.40;;;3.10;;
19664;SDS011;9980;51.020;7.772;2023-07-08T03:29:48;3.07;;;2.87;;
19664;SDS011;9980;51.020;7.772;2023-07-08T03:32:15;3.37;;;3.17;;
19664;SDS011;9980;51.020;7.772;2023-07-08T03:34:42;3.67;;;3.37;;
19664;SDS011;9980;51.020;7.772;2023-07-08T03:37:09;5.43;;;4.13;;
19664;SDS011;9980;51.020;7.772;2023-07-08T03:39:37;3.53;;;3.23;;
19664;SDS011;9980;51.020;7.772;2023-07-08T03:42:04;3.73;;;3.43;;
19664;SDS011;9980;51.020;7.772;2023-07-08T03:44:32;3.60;;;3.30;;
19664;SDS011;9980;51.020;7.772;2023-07-08T03:46:58;4.10;;;3.70;;
19664;SDS011;9980;51.020;7.772;2023-07-08T03:49:26;3.70;;;3.40;;
19664;SDS011;9980;51.020;7.772;2023-07-08T03:51:54;3.20;;;3.00;;
19664;SDS011;9980;51.020;7.772;2023-07-08T03:54:22;4.37;;;3.97;;
19664;SDS011;9980;51.020;7.772;2023-07-08T03:56:54;3.77;;;3.47;;
19664;SDS011;9980;51.020;7.772;2023-07-08T03:59:24;4.17;;;3.53;;
19664;SDS011;9980;51.020;7.772;2023-07-08T04:01:53;5.17;;;3.70;;
19664;SDS011;9980;51.020;7.772;2023-07-08T04:04:20;4.17;;;3.50;;
19664;SDS011;9980;51.020;7.772;2023-07-08T04:06:48;6.07;;;4.07;;
19664;SDS011;9980;51.020;7.772;2023-07-08T04:09:16;5.00;;;3.20;;
19664;SDS011;9980;51.020;7.772;2023-07-08T04:11:43;4.53;;;4.07;;
19664;SDS011;9980;51.020;7.772;2023-07-08T04:14:10;4.50;;;4.10;;
19664;SDS011;9980;51.020;7.772;2023-07-08T04:19:20;4.10;;;3.80;;
19664;SDS011;9980;51.020;7.772;2023-07-08T04:21:49;4.63;;;4.23;;
19664;SDS011;9980;51.020;7.772;2023-07-08T04:24:17;4.70;;;4.30;;
19664;SDS011;9980;51.020;7.772;2023-07-08T04:26:45;5.93;;;4.27;;
19664;SDS011;9980;51.020;7.772;2023-07-08T04:29:15;5.03;;;4.53;;
19664;SDS011;9980;51.020;7.772;2023-07-08T04:31:46;5.13;;;4.50;;
19664;SDS011;9980;51.020;7.772;2023-07-08T04:34:14;4.60;;;4.20;;
19664;SDS011;9980;51.020;7.772;2023-07-08T04:36:43;5.40;;;4.90;;
19664;SDS011;9980;51.020;7.772;2023-07-08T04:39:10;4.93;;;4.43;;
19664;SDS011;9980;51.020;7.772;2023-07-08T04:41:38;5.23;;;4.83;;
19664;SDS011;9980;51.020;7.772;2023-07-08T04:44:08;7.83;;;4.97;;
19664;SDS011;9980;51.020;7.772;2023-07-08T04:46:45;6.03;;;5.47;;
19664;SDS011;9980;51.020;7.772;2023-07-08T04:49:22;6.23;;;5.63;;
19664;SDS011;9980;51.020;7.772;2023-07-08T04:51:51;5.90;;;5.30;;
19664;SDS011;9980;51.020;7.772;2023-07-08T04:54:18;5.77;;;5.27;;
19664;SDS011;9980;51.020;7.772;2023-07-08T04:56:46;5.80;;;5.20;;
19664;SDS011;9980;51.020;7.772;2023-07-08T04:59:19;5.83;;;5.10;;
19664;SDS011;9980;51.020;7.772;2023-07-08T05:01:50;6.17;;;5.57;;
19664;SDS011;9980;51.020;7.772;2023-07-08T05:04:19;5.57;;;5.07;;
19664;SDS011;9980;51.020;7.772;2023-07-08T05:06:48;6.13;;;5.53;;
19664;SDS011;9980;51.020;7.772;2023-07-08T05:09:16;6.20;;;5.60;;
19664;SDS011;9980;51.020;7.772;2023-07-08T05:11:43;6.33;;;5.70;;
19664;SDS011;9980;51.020;7.772;2023-07-08T05:14:11;6.37;;;5.53;;
19664;SDS011;9980;51.020;7.772;2023-07-08T05:16:39;6.90;;;6.30;;
19664;SDS011;9980;51.020;7.772;2023-07-08T05:19:10;7.93;;;6.40;;
19664;SDS011;9980;51.020;7.772;2023-07-08T05:21:37;6.20;;;5.60;;
19664;SDS011;9980;51.020;7.772;2023-07-08T05:24:04;6.20;;;5.70;;
19664;SDS011;9980;51.020;7.772;2023-07-08T05:26:32;7.80;;;5.93;;
19664;SDS011;9980;51.020;7.772;2023-07-08T05:28:59;5.80;;;5.23;;
19664;SDS011;9980;51.020;7.772;2023-07-08T05:31:27;6.70;;;6.10;;
19664;SDS011;9980;51.020;7.772;2023-07-08T05:34:11;5.67;;;5.17;;
19664;SDS011;9980;51.020;7.772;2023-07-08T05:36:38;6.17;;;5.57;;
19664;SDS011;9980;51.020;7.772;2023-07-08T05:39:05;6.33;;;5.73;;
19664;SDS011;9980;51.020;7.772;2023-07-08T05:41:32;6.10;;;5.50;;
19664;SDS011;9980;51.020;7.772;2023-07-08T05:43:59;6.53;;;5.80;;
19664;SDS011;9980;51.020;7.772;2023-07-08T05:46:26;5.67;;;5.17;;
19664;SDS011;9980;51.020;7.772;2023-07-08T05:48:53;7.23;;;5.63;;
19664;SDS011;9980;51.020;7.772;2023-07-08T05:51:20;7.10;;;5.37;;
19664;SDS011;9980;51.020;7.772;2023-07-08T05:53:47;9.47;;;5.47;;
19664;SDS011;9980;51.020;7.772;2023-07-08T05:56:14;5.70;;;5.20;;
19664;SDS011;9980;51.020;7.772;2023-07-08T05:58:41;5.43;;;4.93;;
19664;SDS011;9980;51.020;7.772;2023-07-08T06:01:08;5.87;;;5.17;;
19664;SDS011;9980;51.020;7.772;2023-07-08T06:03:36;5.83;;;5.23;;
19664;SDS011;9980;51.020;7.772;2023-07-08T06:06:03;5.40;;;4.90;;
19664;SDS011;9980;51.020;7.772;2023-07-08T06:08:34;6.63;;;5.40;;
19664;SDS011;9980;51.020;7.772;2023-07-08T06:11:01;5.57;;;4.70;;
19664;SDS011;9980;51.020;7.772;2023-07-08T06:13:29;5.23;;;4.17;;
19664;SDS011;9980;51.020;7.772;2023-07-08T06:15:56;5.67;;;4.90;;
19664;SDS011;9980;51.020;7.772;2023-07-08T06:18:23;6.27;;;5.50;;
19664;SDS011;9980;51.020;7.772;2023-07-08T06:20:51;7.10;;;6.13;;
19664;SDS011;9980;51.020;7.772;2023-07-08T06:23:20;8.53;;;6.30;;
19664;SDS011;9980;51.020;7.772;2023-07-08T06:25:48;6.80;;;6.03;;
19664;SDS011;9980;51.020;7.772;2023-07-08T06:28:16;9.77;;;6.77;;
19664;SDS011;9980;51.020;7.772;2023-07-08T06:30:44;7.87;;;6.53;;
19664;SDS011;9980;51.020;7.772;2023-07-08T06:33:11;9.23;;;6.73;;
19664;SDS011;9980;51.020;7.772;2023-07-08T06:35:39;9.50;;;6.20;;
19664;SDS011;9980;51.020;7.772;2023-07-08T06:38:06;8.73;;;6.63;;
19664;SDS011;9980;51.020;7.772;2023-07-08T06:40:34;8.80;;;5.90;;
19664;SDS011;9980;51.020;7.772;2023-07-08T06:43:02;6.87;;;5.73;;
19664;SDS011;9980;51.020;7.772;2023-07-08T06:45:50;6.87;;;5.57;;
19664;SDS011;9980;51.020;7.772;2023-07-08T06:48:17;5.47;;;4.80;;
19664;SDS011;9980;51.020;7.772;2023-07-08T06:50:47;6.60;;;4.70;;
19664;SDS011;9980;51.020;7.772;2023-07-08T06:53:15;7.80;;;4.63;;
19664;SDS011;9980;51.020;7.772;2023-07-08T06:55:45;4.87;;;4.37;;
19664;SDS011;9980;51.020;7.772;2023-07-08T06:58:12;6.00;;;4.20;;
19664;SDS011;9980;51.020;7.772;2023-07-08T07:00:43;4.20;;;3.80;;
19664;SDS011;9980;51.020;7.772;2023-07-08T07:03:11;4.17;;;3.77;;
19664;SDS011;9980;51.020;7.772;2023-07-08T07:05:39;4.17;;;3.87;;
19664;SDS011;9980;51.020;7.772;2023-07-08T07:08:06;5.30;;;4.13;;
19664;SDS011;9980;51.020;7.772;2023-07-08T07:10:34;5.13;;;4.30;;
19664;SDS011;9980;51.020;7.772;2023-07-08T07:13:03;4.05;;;3.53;;
19664;SDS011;9980;51.020;7.772;2023-07-08T07:15:30;5.70;;;3.80;;
19664;SDS011;9980;51.020;7.772;2023-07-08T07:17:58;6.50;;;4.20;;
19664;SDS011;9980;51.020;7.772;2023-07-08T07:20:25;4.75;;;3.40;;
19664;SDS011;9980;51.020;7.772;2023-07-08T07:22:53;4.88;;;3.92;;
19664;SDS011;9980;51.020;7.772;2023-07-08T07:25:20;5.03;;;3.42;;
19664;SDS011;9980;51.020;7.772;2023-07-08T07:27:48;4.10;;;3.58;;
19664;SDS011;9980;51.020;7.772;2023-07-08T07:30:15;5.75;;;3.90;;
19664;SDS011;9980;51.020;7.772;2023-07-08T07:32:42;4.53;;;3.90;;
19664;SDS011;9980;51.020;7.772;2023-07-08T07:35:10;5.35;;;4.10;;
19664;SDS011;9980;51.020;7.772;2023-07-08T07:37:39;6.50;;;3.97;;
19664;SDS011;9980;51.020;7.772;2023-07-08T07:40:08;3.80;;;3.42;;
19664;SDS011;9980;51.020;7.772;2023-07-08T07:42:39;4.85;;;4.00;;
19664;SDS011;9980;51.020;7.772;2023-07-08T07:45:08;4.65;;;3.70;;
19664;SDS011;9980;51.020;7.772;2023-07-08T07:47:35;3.95;;;3.55;;
19664;SDS011;9980;51.020;7.772;2023-07-08T07:50:03;4.65;;;4.15;;
19664;SDS011;9980;51.020;7.772;2023-07-08T07:52:32;5.07;;;3.88;;
19664;SDS011;9980;51.020;7.772;2023-07-08T07:54:59;4.68;;;4.20;;
19664;SDS011;9980;51.020;7.772;2023-07-08T07:57:27;5.18;;;3.78;;
19664;SDS011;9980;51.020;7.772;2023-07-08T07:59:54;8.07;;;4.07;;
19664;SDS011;9980;51.020;7.772;2023-07-08T08:02:21;7.38;;;3.60;;
19664;SDS011;9980;51.020;7.772;2023-07-08T08:04:48;6.18;;;3.88;;
19664;SDS011;9980;51.020;7.772;2023-07-08T08:07:15;4.20;;;3.80;;
19664;SDS011;9980;51.020;7.772;2023-07-08T08:09:43;5.18;;;4.00;;
19664;SDS011;9980;51.020;7.772;2023-07-08T08:12:10;4.40;;;4.00;;
19664;SDS011;9980;51.020;7.772;2023-07-08T08:14:38;4.63;;;4.22;;
19664;SDS011;9980;51.020;7.772;2023-07-08T08:17:06;8.15;;;4.25;;
19664;SDS011;9980;51.020;7.772;2023-07-08T08:19:33;4.50;;;4.10;;
19664;SDS011;9980;51.020;7.772;2023-07-08T08:22:00;4.28;;;3.78;;
19664;SDS011;9980;51.020;7.772;2023-07-08T08:24:27;4.68;;;4.18;;
19664;SDS011;9980;51.020;7.772;2023-07-08T08:26:54;5.03;;;4.10;;
19664;SDS011;9980;51.020;7.772;2023-07-08T08:29:21;6.13;;;3.80;;
19664;SDS011;9980;51.020;7.772;2023-07-08T08:31:48;4.28;;;3.88;;
19664;SDS011;9980;51.020;7.772;2023-07-08T08:34:16;4.38;;;3.90;;
19664;SDS011;9980;51.020;7.772;2023-07-08T08:36:44;5.22;;;4.10;;
19664;SDS011;9980;51.020;7.772;2023-07-08T08:39:10;4.10;;;3.70;;
19664;SDS011;9980;51.020;7.772;2023-07-08T08:41:38;9.55;;;3.85;;
19664;SDS011;9980;51.020;7.772;2023-07-08T08:44:15;4.30;;;3.60;;
19664;SDS011;9980;51.020;7.772;2023-07-08T08:47:17;5.32;;;4.00;;
19664;SDS011;9980;51.020;7.772;2023-07-08T08:53:12;4.55;;;4.00;;
19664;SDS011;9980;51.020;7.772;2023-07-08T08:55:45;3.85;;;3.45;;
19664;SDS011;9980;51.020;7.772;2023-07-08T09:01:08;5.28;;;3.92;;
19664;SDS011;9980;51.020;7.772;2023-07-08T09:03:46;5.50;;;4.07;;
19664;SDS011;9980;51.020;7.772;2023-07-08T09:06:23;4.07;;;3.67;;
19664;SDS011;9980;51.020;7.772;2023-07-08T09:08:56;5.45;;;3.85;;
19664;SDS011;9980;51.020;7.772;2023-07-08T09:14:24;4.15;;;3.75;;
19664;SDS011;9980;51.020;7.772;2023-07-08T09:19:44;4.63;;;3.70;;
19664;SDS011;9980;51.020;7.772;2023-07-08T09:22:36;4.07;;;3.53;;
19664;SDS011;9980;51.020;7.772;2023-07-08T09:28:07;4.18;;;3.78;;
19664;SDS011;9980;51.020;7.772;2023-07-08T09:30:35;4.10;;;3.58;;
19664;SDS011;9980;51.020;7.772;2023-07-08T09:33:03;3.97;;;3.30;;
19664;SDS011;9980;51.020;7.772;2023-07-08T09:35:38;4.90;;;3.20;;
19664;SDS011;9980;51.020;7.772;2023-07-08T09:38:15;4.80;;;3.30;;
19664;SDS011;9980;51.020;7.772;2023-07-08T09:40:52;3.67;;;3.38;;
19664;SDS011;9980;51.020;7.772;2023-07-08T09:43:26;4.50;;;3.20;;
19664;SDS011;9980;51.020;7.772;2023-07-08T09:46:04;4.72;;;3.10;;
19664;SDS011;9980;51.020;7.772;2023-07-08T09:48:38;4.10;;;3.55;;
19664;SDS011;9980;51.020;7.772;2023-07-08T09:51:05;5.50;;;3.30;;
19664;SDS011;9980;51.020;7.772;2023-07-08T09:53:34;3.20;;;2.90;;
19664;SDS011;9980;51.020;7.772;2023-07-08T09:56:03;4.70;;;3.53;;
19664;SDS011;9980;51.020;7.772;2023-07-08T09:58:35;3.22;;;2.92;;
19664;SDS011;9980;51.020;7.772;2023-07-08T10:01:14;3.05;;;2.78;;
19664;SDS011;9980;51.020;7.772;2023-07-08T10:03:49;3.25;;;2.70;;
19664;SDS011;9980;51.020;7.772;2023-07-08T10:06:25;3.00;;;2.70;;
19664;SDS011;9980;51.020;7.772;2023-07-08T10:09:00;3.33;;;2.70;;
19664;SDS011;9980;51.020;7.772;2023-07-08T10:11:47;3.97;;;2.90;;
19664;SDS011;9980;51.020;7.772;2023-07-08T10:14:42;5.68;;;3.15;;
19664;SDS011;9980;51.020;7.772;2023-07-08T10:17:24;3.67;;;2.63;;
19664;SDS011;9980;51.020;7.772;2023-07-08T10:19:51;6.03;;;2.78;;
19664;SDS011;9980;51.020;7.772;2023-07-08T10:22:31;4.25;;;2.65;;
19664;SDS011;9980;51.020;7.772;2023-07-08T10:28:21;3.20;;;2.75;;
19664;SDS011;9980;51.020;7.772;2023-07-08T10:34:17;3.33;;;2.72;;
19664;SDS011;9980;51.020;7.772;2023-07-08T10:40:11;3.28;;;2.80;;
19664;SDS011;9980;51.020;7.772;2023-07-08T10:42:49;2.90;;;2.60;;
19664;SDS011;9980;51.020;7.772;2023-07-08T10:45:35;4.25;;;2.75;;
19664;SDS011;9980;51.020;7.772;2023-07-08T10:48:35;2.72;;;2.47;;
19664;SDS011;9980;51.020;7.772;2023-07-08T11:00:56;3.22;;;2.63;;
19664;SDS011;9980;51.020;7.772;2023-07-08T11:03:34;5.22;;;2.90;;
19664;SDS011;9980;51.020;7.772;2023-07-08T11:06:33;4.75;;;2.95;;
19664;SDS011;9980;51.020;7.772;2023-07-08T11:09:27;3.50;;;2.38;;
19664;SDS011;9980;51.020;7.772;2023-07-08T11:12:07;4.45;;;2.85;;
19664;SDS011;9980;51.020;7.772;2023-07-08T11:14:51;3.20;;;2.75;;
19664;SDS011;9980;51.020;7.772;2023-07-08T11:17:42;3.72;;;2.45;;
19664;SDS011;9980;51.020;7.772;2023-07-08T11:20:21;3.10;;;2.80;;
19664;SDS011;9980;51.020;7.772;2023-07-08T11:23:03;3.35;;;2.70;;
19664;SDS011;9980;51.020;7.772;2023-07-08T11:26:19;3.28;;;2.90;;
19664;SDS011;9980;51.020;7.772;2023-07-08T11:29:05;2.90;;;2.40;;
19664;SDS011;9980;51.020;7.772;2023-07-08T11:31:48;7.70;;;2.90;;
19664;SDS011;9980;51.020;7.772;2023-07-08T11:34:19;4.38;;;3.08;;
19664;SDS011;9980;51.020;7.772;2023-07-08T11:36:47;3.47;;;2.80;;
19664;SDS011;9980;51.020;7.772;2023-07-08T11:39:52;4.18;;;2.95;;
19664;SDS011;9980;51.020;7.772;2023-07-08T11:42:23;4.05;;;2.80;;
19664;SDS011;9980;51.020;7.772;2023-07-08T11:44:56;3.25;;;2.63;;
19664;SDS011;9980;51.020;7.772;2023-07-08T11:47:31;3.17;;;2.83;;
19664;SDS011;9980;51.020;7.772;2023-07-08T11:50:04;4.68;;;2.88;;
19664;SDS011;9980;51.020;7.772;2023-07-08T11:53:01;5.50;;;3.25;;
19664;SDS011;9980;51.020;7.772;2023-07-08T11:58:29;3.88;;;3.28;;
19664;SDS011;9980;51.020;7.772;2023-07-08T12:03:49;3.45;;;3.10;;
19664;SDS011;9980;51.020;7.772;2023-07-08T12:08:56;4.28;;;3.17;;
19664;SDS011;9980;51.020;7.772;2023-07-08T12:11:40;5.13;;;3.45;;
19664;SDS011;9980;51.020;7.772;2023-07-08T12:14:10;5.32;;;3.83;;
19664;SDS011;9980;51.020;7.772;2023-07-08T12:16:40;5.82;;;3.15;;
19664;SDS011;9980;51.020;7.772;2023-07-08T12:19:10;5.05;;;3.53;;
19664;SDS011;9980;51.020;7.772;2023-07-08T12:21:43;5.10;;;4.22;;
19664;SDS011;9980;51.020;7.772;2023-07-08T12:24:12;5.40;;;3.90;;
19664;SDS011;9980;51.020;7.772;2023-07-08T12:26:40;5.95;;;3.40;;
19664;SDS011;9980;51.020;7.772;2023-07-08T12:29:11;3.90;;;3.47;;
19664;SDS011;9980;51.020;7.772;2023-07-08T12:31:40;4.88;;;3.40;;
19664;SDS011;9980;51.020;7.772;2023-07-08T12:34:13;8.82;;;3.30;;
19664;SDS011;9980;51.020;7.772;2023-07-08T12:36:43;3.50;;;3.20;;
19664;SDS011;9980;51.020;7.772;2023-07-08T12:39:15;9.20;;;3.70;;
19664;SDS011;9980;51.020;7.772;2023-07-08T12:41:44;6.13;;;3.47;;
19664;SDS011;9980;51.020;7.772;2023-07-08T12:44:18;3.42;;;2.75;;
19664;SDS011;9980;51.020;7.772;2023-07-08T12:46:52;7.78;;;2.90;;
19664;SDS011;9980;51.020;7.772;2023-07-08T12:49:21;5.18;;;3.28;;
19664;SDS011;9980;51.020;7.772;2023-07-08T12:51:53;5.45;;;3.58;;
19664;SDS011;9980;51.020;7.772;2023-07-08T12:54:20;4.55;;;2.90;;
19664;SDS011;9980;51.020;7.772;2023-07-08T12:56:48;4.88;;;2.92;;
19664;SDS011;9980;51.020;7.772;2023-07-08T12:59:17;5.57;;;3.13;;
19664;SDS011;9980;51.020;7.772;2023-07-08T13:01:49;4.60;;;3.00;;
19664;SDS011;9980;51.020;7.772;2023-07-08T13:04:18;5.05;;;3.33;;
19664;SDS011;9980;51.020;7.772;2023-07-08T13:06:46;3.85;;;2.65;;
19664;SDS011;9980;51.020;7.772;2023-07-08T13:09:28;5.88;;;3.05;;
19664;SDS011;9980;51.020;7.772;2023-07-08T13:12:10;4.32;;;3.15;;
19664;SDS011;9980;51.020;7.772;2023-07-08T13:14:48;5.65;;;2.97;;
19664;SDS011;9980;51.020;7.772;2023-07-08T13:17:20;4.55;;;3.00;;
19664;SDS011;9980;51.020;7.772;2023-07-08T13:19:47;7.72;;;3.40;;
19664;SDS011;9980;51.020;7.772;2023-07-08T13:22:16;4.82;;;2.72;;
19664;SDS011;9980;51.020;7.772;2023-07-08T13:24:48;4.25;;;2.90;;
19664;SDS011;9980;51.020;7.772;2023-07-08T13:27:25;7.38;;;3.53;;
19664;SDS011;9980;51.020;7.772;2023-07-08T13:29:54;4.30;;;2.95;;
19664;SDS011;9980;51.020;7.772;2023-07-08T13:32:34;5.70;;;3.70;;
19664;SDS011;9980;51.020;7.772;2023-07-08T13:35:04;4.55;;;3.70;;
19664;SDS011;9980;51.020;7.772;2023-07-08T13:37:46;4.47;;;3.33;;
19664;SDS011;9980;51.020;7.772;2023-07-08T13:40:14;3.85;;;3.05;;
19664;SDS011;9980;51.020;7.772;2023-07-08T13:42:51;4.97;;;3.10;;
19664;SDS011;9980;51.020;7.772;2023-07-08T13:45:26;4.68;;;3.60;;
19664;SDS011;9980;51.020;7.772;2023-07-08T13:48:00;6.05;;;3.30;;
19664;SDS011;9980;51.020;7.772;2023-07-08T13:50:43;5.95;;;3.20;;
19664;SDS011;9980;51.020;7.772;2023-07-08T13:53:18;4.43;;;3.28;;
19664;SDS011;9980;51.020;7.772;2023-07-08T13:56:13;3.67;;;3.35;;
19664;SDS011;9980;51.020;7.772;2023-07-08T13:58:49;3.60;;;3.20;;
19664;SDS011;9980;51.020;7.772;2023-07-08T14:01:28;3.80;;;3.20;;
19664;SDS011;9980;51.020;7.772;2023-07-08T14:03:58;4.30;;;3.30;;
19664;SDS011;9980;51.020;7.772;2023-07-08T14:06:32;5.80;;;3.38;;
19664;SDS011;9980;51.020;7.772;2023-07-08T14:09:22;4.85;;;2.90;;
19664;SDS011;9980;51.020;7.772;2023-07-08T14:11:50;4.70;;;3.72;;
19664;SDS011;9980;51.020;7.772;2023-07-08T14:14:19;4.75;;;3.00;;
19664;SDS011;9980;51.020;7.772;2023-07-08T14:16:47;4.80;;;3.22;;
19664;SDS011;9980;51.020;7.772;2023-07-08T14:19:22;6.22;;;3.08;;
19664;SDS011;9980;51.020;7.772;2023-07-08T14:21:54;7.03;;;3.90;;
19664;SDS011;9980;51.020;7.772;2023-07-08T14:24:24;3.33;;;3.03;;
19664;SDS011;9980;51.020;7.772;2023-07-08T14:26:52;4.47;;;3.08;;
19664;SDS011;9980;51.020;7.772;2023-07-08T14:29:20;7.78;;;3.83;;
19664;SDS011;9980;51.020;7.772;2023-07-08T14:31:48;6.43;;;3.53;;
19664;SDS011;9980;51.020;7.772;2023-07-08T14:34:23;7.32;;;3.42;;
19664;SDS011;9980;51.020;7.772;2023-07-08T14:36:52;3.58;;;3.22;;
19664;SDS011;9980;51.020;7.772;2023-07-08T14:39:20;6.25;;;3.92;;
19664;SDS011;9980;51.020;7.772;2023-07-08T14:41:48;4.60;;;3.85;;
19664;SDS011;9980;51.020;7.772;2023-07-08T14:44:18;6.03;;;3.58;;
19664;SDS011;9980;51.020;7.772;2023-07-08T14:46:53;5.75;;;3.92;;
19664;SDS011;9980;51.020;7.772;2023-07-08T14:49:21;8.45;;;4.25;;
19664;SDS011;9980;51.020;7.772;2023-07-08T14:51:53;4.80;;;3.58;;
19664;SDS011;9980;51.020;7.772;2023-07-08T14:54:21;5.22;;;3.63;;
19664;SDS011;9980;51.020;7.772;2023-07-08T14:56:48;5.30;;;3.50;;
19664;SDS011;9980;51.020;7.772;2023-07-08T14:59:20;8.52;;;3.78;;
19664;SDS011;9980;51.020;7.772;2023-07-08T15:01:51;5.97;;;4.15;;
19664;SDS011;9980;51.020;7.772;2023-07-08T15:04:21;4.97;;;3.92;;
19664;SDS011;9980;51.020;7.772;2023-07-08T15:06:48;5.57;;;3.97;;
19664;SDS011;9980;51.020;7.772;2023-07-08T15:09:16;5.60;;;3.13;;
19664;SDS011;9980;51.020;7.772;2023-07-08T15:11:44;5.13;;;3.65;;
19664;SDS011;9980;51.020;7.772;2023-07-08T15:16:47;5.35;;;3.40;;
19664;SDS011;9980;51.020;7.772;2023-07-08T15:19:17;6.10;;;3.83;;
19664;SDS011;9980;51.020;7.772;2023-07-08T15:21:45;6.50;;;4.03;;
19664;SDS011;9980;51.020;7.772;2023-07-08T15:24:13;5.20;;;3.80;;
19664;SDS011;9980;51.020;7.772;2023-07-08T15:26:45;5.75;;;3.50;;
19664;SDS011;9980;51.020;7.772;2023-07-08T15:29:16;6.03;;;4.00;;
19664;SDS011;9980;51.020;7.772;2023-07-08T15:31:50;7.78;;;4.10;;
19664;SDS011;9980;51.020;7.772;2023-07-08T15:34:18;6.70;;;3.60;;
19664;SDS011;9980;51.020;7.772;2023-07-08T15:36:48;5.70;;;4.20;;
19664;SDS011;9980;51.020;7.772;2023-07-08T15:39:16;6.57;;;4.13;;
19664;SDS011;9980;51.020;7.772;2023-07-08T15:41:43;5.07;;;3.58;;
19664;SDS011;9980;51.020;7.772;2023-07-08T15:44:11;5.07;;;3.92;;
19664;SDS011;9980;51.020;7.772;2023-07-08T15:46:46;9.07;;;4.00;;
19664;SDS011;9980;51.020;7.772;2023-07-08T15:49:17;5.22;;;3.92;;
19664;SDS011;9980;51.020;7.772;2023-07-08T15:51:49;5.90;;;4.13;;
19664;SDS011;9980;51.020;7.772;2023-07-08T15:54:19;6.68;;;4.00;;
19664;SDS011;9980;51.020;7.772;2023-07-08T15:56:46;6.57;;;3.50;;
19664;SDS011;9980;51.020;7.772;2023-07-08T15:59:21;5.95;;;3.33;;
19664;SDS011;9980;51.020;7.772;2023-07-08T16:01:57;7.78;;;3.70;;
19664;SDS011;9980;51.020;7.772;2023-07-08T16:04:49;6.65;;;4.18;;
19664;SDS011;9980;51.020;7.772;2023-07-08T16:07:17;7.10;;;3.40;;
19664;SDS011;9980;51.020;7.772;2023-07-08T16:09:44;5.80;;;3.63;;
19664;SDS011;9980;51.020;7.772;2023-07-08T16:12:12;3.95;;;3.10;;
19664;SDS011;9980;51.020;7.772;2023-07-08T16:14:46;6.35;;;3.67;;
19664;SDS011;9980;51.020;7.772;2023-07-08T16:17:13;6.75;;;3.72;;
19664;SDS011;9980;51.020;7.772;2023-07-08T16:19:40;3.83;;;3.47;;
19664;SDS011;9980;51.020;7.772;2023-07-08T16:22:07;9.10;;;3.95;;
19664;SDS011;9980;51.020;7.772;2023-07-08T16:24:34;4.30;;;3.75;;